KNEL/NEL METAR and TAF weather

Enter ICAO airport designator
Station Type Date Time Source
KNEL METAR 2019/05/21 20:00 UTC NOAA

KNEL 212000Z 29013G20KT 10SM CLR 21/05 A2994 RMK AO2 PK WND 29026/1945 SLP138 T02110050 $


Station Type Date Time Source
KNEL Decoded METAR 2019/05/21 20:00 UTC NOAA

Lakehurst Naval Air Station, NJ, United States (KNEL) 40-02N 074-19W 24M
May 21, 2019 - 04:00 PM EDT / 2019.05.21 2000 UTC
Wind: from the WNW (290 degrees) at 15 MPH (13 KT) gusting to 23 MPH (20 KT):0
Visibility: 10 mile(s):0
Sky conditions: clear
Temperature: 70.0 F (21.1 C)
Dew Point: 41.0 F (5.0 C)
Relative Humidity: 34%
Pressure (altimeter): 29.94 in. Hg (1013 hPa)
ob: KNEL 212000Z 29013G20KT 10SM CLR 21/05 A2994 RMK AO2 PK WND 29026/1945 SLP138 T02110050
cycle: 20

Station Type Date Time Source
KNEL TAF UTC NOAA

Error!

Example: see airport list